Aviation Digital Data Service (ADDS)

Output produced by METARs form (2256 UTC 23 March 2019)
found at http://www.aviationweather.gov/metar/data/
 
METAR text: WMKK 232230Z VRB02KT 5000 HZ FEW017CB BKN280 25/24 Q1008 NOSIG
Conditions at: WMKK (KUALA LUMPUR/SUB, MY) observed 2230 UTC 23 March 2019
Temperature: 25.0°C (77°F)
Dewpoint: 24.0°C (75°F) [RH = 94%]
Pressure (altimeter): 29.76 inches Hg (1008.0 mb)
Winds: variable direction winds at 2 MPH (2 knots; 1.0 m/s)
Visibility: 3 miles ( 5 km)
Ceiling: 28000 feet AGL
Clouds: few clouds at 1700 feet AGL
broken clouds at 28000 feet AGL
Weather: HZ  (haze)

METAR text: WMKK 232200Z VRB01KT 6000 FEW017CB BKN280 25/24 Q1008 NOSIG
Conditions at: WMKK (KUALA LUMPUR/SUB, MY) observed 2200 UTC 23 March 2019
Temperature: 25.0°C (77°F)
Dewpoint: 24.0°C (75°F) [RH = 94%]
Pressure (altimeter): 29.76 inches Hg (1008.0 mb)
Winds: variable direction winds at 1 MPH (1 knots; 0.5 m/s)
Visibility: 4 miles ( 6 km)
Ceiling: 28000 feet AGL
Clouds: few clouds at 1700 feet AGL
broken clouds at 28000 feet AGL
Weather: no significant weather observed at this time

METAR text: WMKK 232130Z VRB02KT 6000 FEW017CB BKN280 25/24 Q1008 NOSIG
Conditions at: WMKK (KUALA LUMPUR/SUB, MY) observed 2130 UTC 23 March 2019
Temperature: 25.0°C (77°F)
Dewpoint: 24.0°C (75°F) [RH = 94%]
Pressure (altimeter): 29.76 inches Hg (1008.0 mb)
Winds: variable direction winds at 2 MPH (2 knots; 1.0 m/s)
Visibility: 4 miles ( 6 km)
Ceiling: 28000 feet AGL
Clouds: few clouds at 1700 feet AGL
broken clouds at 28000 feet AGL
Weather: no significant weather observed at this time

METAR text: WMKK 232100Z VRB02KT 4000 HZ FEW017CB BKN280 25/24 Q1008 NOSIG
Conditions at: WMKK (KUALA LUMPUR/SUB, MY) observed 2100 UTC 23 March 2019
Temperature: 25.0°C (77°F)
Dewpoint: 24.0°C (75°F) [RH = 94%]
Pressure (altimeter): 29.76 inches Hg (1008.0 mb)
Winds: variable direction winds at 2 MPH (2 knots; 1.0 m/s)
Visibility: 2.49 miles (4.01 km)
Ceiling: 28000 feet AGL
Clouds: few clouds at 1700 feet AGL
broken clouds at 28000 feet AGL
Weather: HZ  (haze)

METAR text: WMKK 232030Z 00000KT 5000 HZ FEW017CB BKN280 25/24 Q1008 NOSIG
Conditions at: WMKK (KUALA LUMPUR/SUB, MY) observed 2030 UTC 23 March 2019
Temperature: 25.0°C (77°F)
Dewpoint: 24.0°C (75°F) [RH = 94%]
Pressure (altimeter): 29.76 inches Hg (1008.0 mb)
Winds: calm
Visibility: 3 miles ( 5 km)
Ceiling: 28000 feet AGL
Clouds: few clouds at 1700 feet AGL
broken clouds at 28000 feet AGL
Weather: HZ  (haze)

METAR text: WMKK 232000Z VRB02KT 5000 HZ FEW017CB SCT140 BKN280 25/24 Q1009 NOSIG
Conditions at: WMKK (KUALA LUMPUR/SUB, MY) observed 2000 UTC 23 March 2019
Temperature: 25.0°C (77°F)
Dewpoint: 24.0°C (75°F) [RH = 94%]
Pressure (altimeter): 29.79 inches Hg (1009.0 mb)
Winds: variable direction winds at 2 MPH (2 knots; 1.0 m/s)
Visibility: 3 miles ( 5 km)
Ceiling: 28000 feet AGL
Clouds: few clouds at 1700 feet AGL
scattered clouds at 14000 feet AGL
broken clouds at 28000 feet AGL
Weather: HZ  (haze)

METAR text: WMKK 231930Z 00000KT 7000 FEW030 BKN280 26/24 Q1009 NOSIG
Conditions at: WMKK (KUALA LUMPUR/SUB, MY) observed 1930 UTC 23 March 2019
Temperature: 26.0°C (79°F)
Dewpoint: 24.0°C (75°F) [RH = 89%]
Pressure (altimeter): 29.79 inches Hg (1009.0 mb)
Winds: calm
Visibility: 4 miles ( 7 km)
Ceiling: 28000 feet AGL
Clouds: few clouds at 3000 feet AGL
broken clouds at 28000 feet AGL
Weather: no significant weather observed at this time

METAR text: WMKK 231900Z 00000KT 9000 FEW030 BKN280 26/24 Q1009 NOSIG
Conditions at: WMKK (KUALA LUMPUR/SUB, MY) observed 1900 UTC 23 March 2019
Temperature: 26.0°C (79°F)
Dewpoint: 24.0°C (75°F) [RH = 89%]
Pressure (altimeter): 29.79 inches Hg (1009.0 mb)
Winds: calm
Visibility: 6 miles ( 9 km)
Ceiling: 28000 feet AGL
Clouds: few clouds at 3000 feet AGL
broken clouds at 28000 feet AGL
Weather: no significant weather observed at this time

METAR text: WMKK 231830Z 00000KT 9000 FEW030 BKN280 26/25 Q1009 NOSIG
Conditions at: WMKK (KUALA LUMPUR/SUB, MY) observed 1830 UTC 23 March 2019
Temperature: 26.0°C (79°F)
Dewpoint: 25.0°C (77°F) [RH = 94%]
Pressure (altimeter): 29.79 inches Hg (1009.0 mb)
Winds: calm
Visibility: 6 miles ( 9 km)
Ceiling: 28000 feet AGL
Clouds: few clouds at 3000 feet AGL
broken clouds at 28000 feet AGL
Weather: no significant weather observed at this time

METAR text: WMKK 231800Z 00000KT 9000 FEW030 BKN280 26/25 Q1009 NOSIG
Conditions at: WMKK (KUALA LUMPUR/SUB, MY) observed 1800 UTC 23 March 2019
Temperature: 26.0°C (79°F)
Dewpoint: 25.0°C (77°F) [RH = 94%]
Pressure (altimeter): 29.79 inches Hg (1009.0 mb)
Winds: calm
Visibility: 6 miles ( 9 km)
Ceiling: 28000 feet AGL
Clouds: few clouds at 3000 feet AGL
broken clouds at 28000 feet AGL
Weather: no significant weather observed at this time

METAR text: WMKK 231730Z 03003KT 350V060 9999 FEW030 SCT140 BKN280 27/25 Q1010 NOSIG
Conditions at: WMKK (KUALA LUMPUR/SUB, MY) observed 1730 UTC 23 March 2019
Temperature: 27.0°C (81°F)
Dewpoint: 25.0°C (77°F) [RH = 89%]
Pressure (altimeter): 29.82 inches Hg (1010.0 mb)
Winds: from the NNE (30 degrees) at 3 MPH (3 knots; 1.5 m/s)
Visibility: 6 or more miles (10+ km)
Ceiling: 28000 feet AGL
Clouds: few clouds at 3000 feet AGL
scattered clouds at 14000 feet AGL
broken clouds at 28000 feet AGL
Weather: no significant weather observed at this time

METAR text: WMKK 231700Z 04004KT 360V060 9000 FEW030 BKN280 27/25 Q1010 NOSIG
Conditions at: WMKK (KUALA LUMPUR/SUB, MY) observed 1700 UTC 23 March 2019
Temperature: 27.0°C (81°F)
Dewpoint: 25.0°C (77°F) [RH = 89%]
Pressure (altimeter): 29.82 inches Hg (1010.0 mb)
Winds: from the NE (40 degrees) at 5 MPH (4 knots; 2.1 m/s)
Visibility: 6 miles ( 9 km)
Ceiling: 28000 feet AGL
Clouds: few clouds at 3000 feet AGL
broken clouds at 28000 feet AGL
Weather: no significant weather observed at this time

METAR text: WMKK 231630Z 03004KT 360V070 9000 FEW030 BKN280 27/25 Q1010 NOSIG
Conditions at: WMKK (KUALA LUMPUR/SUB, MY) observed 1630 UTC 23 March 2019
Temperature: 27.0°C (81°F)
Dewpoint: 25.0°C (77°F) [RH = 89%]
Pressure (altimeter): 29.82 inches Hg (1010.0 mb)
Winds: from the NNE (30 degrees) at 5 MPH (4 knots; 2.1 m/s)
Visibility: 6 miles ( 9 km)
Ceiling: 28000 feet AGL
Clouds: few clouds at 3000 feet AGL
broken clouds at 28000 feet AGL
Weather: no significant weather observed at this time

METAR text: WMKK 231600Z 04006KT 010V070 8000 FEW030 BKN280 27/25 Q1010 NOSIG
Conditions at: WMKK (KUALA LUMPUR/SUB, MY) observed 1600 UTC 23 March 2019
Temperature: 27.0°C (81°F)
Dewpoint: 25.0°C (77°F) [RH = 89%]
Pressure (altimeter): 29.82 inches Hg (1010.0 mb)
Winds: from the NE (40 degrees) at 7 MPH (6 knots; 3.1 m/s)
Visibility: 5 miles ( 8 km)
Ceiling: 28000 feet AGL
Clouds: few clouds at 3000 feet AGL
broken clouds at 28000 feet AGL
Weather: no significant weather observed at this time

METAR text: WMKK 231530Z VRB02KT 9000 FEW030 BKN280 27/25 Q1010 NOSIG
Conditions at: WMKK (KUALA LUMPUR/SUB, MY) observed 1530 UTC 23 March 2019
Temperature: 27.0°C (81°F)
Dewpoint: 25.0°C (77°F) [RH = 89%]
Pressure (altimeter): 29.82 inches Hg (1010.0 mb)
Winds: variable direction winds at 2 MPH (2 knots; 1.0 m/s)
Visibility: 6 miles ( 9 km)
Ceiling: 28000 feet AGL
Clouds: few clouds at 3000 feet AGL
broken clouds at 28000 feet AGL
Weather: no significant weather observed at this time

METAR text: WMKK 231500Z VRB03KT 9000 FEW030 SCT140 BKN280 27/25 Q1010 NOSIG
Conditions at: WMKK (KUALA LUMPUR/SUB, MY) observed 1500 UTC 23 March 2019
Temperature: 27.0°C (81°F)
Dewpoint: 25.0°C (77°F) [RH = 89%]
Pressure (altimeter): 29.82 inches Hg (1010.0 mb)
Winds: variable direction winds at 3 MPH (3 knots; 1.5 m/s)
Visibility: 6 miles ( 9 km)
Ceiling: 28000 feet AGL
Clouds: few clouds at 3000 feet AGL
scattered clouds at 14000 feet AGL
broken clouds at 28000 feet AGL
Weather: no significant weather observed at this time

METAR text: WMKK 231430Z 01003KT 330V040 9000 FEW030 BKN140 BKN280 27/25 Q1010 NOSIG
Conditions at: WMKK (KUALA LUMPUR/SUB, MY) observed 1430 UTC 23 March 2019
Temperature: 27.0°C (81°F)
Dewpoint: 25.0°C (77°F) [RH = 89%]
Pressure (altimeter): 29.82 inches Hg (1010.0 mb)
Winds: from the N (10 degrees) at 3 MPH (3 knots; 1.5 m/s)
Visibility: 6 miles ( 9 km)
Ceiling: 14000 feet AGL
Clouds: few clouds at 3000 feet AGL
broken clouds at 14000 feet AGL
broken clouds at 28000 feet AGL
Weather: no significant weather observed at this time

METAR text: WMKK 231400Z VRB02KT 9000 FEW030 BKN140 BKN280 27/25 Q1010 NOSIG
Conditions at: WMKK (KUALA LUMPUR/SUB, MY) observed 1400 UTC 23 March 2019
Temperature: 27.0°C (81°F)
Dewpoint: 25.0°C (77°F) [RH = 89%]
Pressure (altimeter): 29.82 inches Hg (1010.0 mb)
Winds: variable direction winds at 2 MPH (2 knots; 1.0 m/s)
Visibility: 6 miles ( 9 km)
Ceiling: 14000 feet AGL
Clouds: few clouds at 3000 feet AGL
broken clouds at 14000 feet AGL
broken clouds at 28000 feet AGL
Weather: no significant weather observed at this time

METAR text: WMKK 231330Z VRB02KT 9000 FEW030 BKN140 BKN280 27/25 Q1009 NOSIG
Conditions at: WMKK (KUALA LUMPUR/SUB, MY) observed 1330 UTC 23 March 2019
Temperature: 27.0°C (81°F)
Dewpoint: 25.0°C (77°F) [RH = 89%]
Pressure (altimeter): 29.79 inches Hg (1009.0 mb)
Winds: variable direction winds at 2 MPH (2 knots; 1.0 m/s)
Visibility: 6 miles ( 9 km)
Ceiling: 14000 feet AGL
Clouds: few clouds at 3000 feet AGL
broken clouds at 14000 feet AGL
broken clouds at 28000 feet AGL
Weather: no significant weather observed at this time

METAR text: WMKK 231300Z VRB02KT 9999 FEW030 SCT140 BKN280 26/24 Q1009 NOSIG
Conditions at: WMKK (KUALA LUMPUR/SUB, MY) observed 1300 UTC 23 March 2019
Temperature: 26.0°C (79°F)
Dewpoint: 24.0°C (75°F) [RH = 89%]
Pressure (altimeter): 29.79 inches Hg (1009.0 mb)
Winds: variable direction winds at 2 MPH (2 knots; 1.0 m/s)
Visibility: 6 or more miles (10+ km)
Ceiling: 28000 feet AGL
Clouds: few clouds at 3000 feet AGL
scattered clouds at 14000 feet AGL
broken clouds at 28000 feet AGL
Weather: no significant weather observed at this time

METAR text: WMKK 231230Z VRB03KT 9000 FEW030 SCT140 BKN280 26/24 Q1008 NOSIG
Conditions at: WMKK (KUALA LUMPUR/SUB, MY) observed 1230 UTC 23 March 2019
Temperature: 26.0°C (79°F)
Dewpoint: 24.0°C (75°F) [RH = 89%]
Pressure (altimeter): 29.76 inches Hg (1008.0 mb)
Winds: variable direction winds at 3 MPH (3 knots; 1.5 m/s)
Visibility: 6 miles ( 9 km)
Ceiling: 28000 feet AGL
Clouds: few clouds at 3000 feet AGL
scattered clouds at 14000 feet AGL
broken clouds at 28000 feet AGL
Weather: no significant weather observed at this time

METAR text: WMKK 231200Z 02004KT 330V060 9000 FEW030 BKN280 26/24 Q1008 NOSIG
Conditions at: WMKK (KUALA LUMPUR/SUB, MY) observed 1200 UTC 23 March 2019
Temperature: 26.0°C (79°F)
Dewpoint: 24.0°C (75°F) [RH = 89%]
Pressure (altimeter): 29.76 inches Hg (1008.0 mb)
Winds: from the NNE (20 degrees) at 5 MPH (4 knots; 2.1 m/s)
Visibility: 6 miles ( 9 km)
Ceiling: 28000 feet AGL
Clouds: few clouds at 3000 feet AGL
broken clouds at 28000 feet AGL
Weather: no significant weather observed at this time

METAR text: WMKK 231130Z 03003KT 350V060 9999 FEW030 BKN280 26/24 Q1008 NOSIG
Conditions at: WMKK (KUALA LUMPUR/SUB, MY) observed 1130 UTC 23 March 2019
Temperature: 26.0°C (79°F)
Dewpoint: 24.0°C (75°F) [RH = 89%]
Pressure (altimeter): 29.76 inches Hg (1008.0 mb)
Winds: from the NNE (30 degrees) at 3 MPH (3 knots; 1.5 m/s)
Visibility: 6 or more miles (10+ km)
Ceiling: 28000 feet AGL
Clouds: few clouds at 3000 feet AGL
broken clouds at 28000 feet AGL
Weather: no significant weather observed at this time

METAR text: WMKK 231100Z 03005KT 360V080 9999 FEW030 SCT140 BKN280 26/24 Q1007 NOSIG
Conditions at: WMKK (KUALA LUMPUR/SUB, MY) observed 1100 UTC 23 March 2019
Temperature: 26.0°C (79°F)
Dewpoint: 24.0°C (75°F) [RH = 89%]
Pressure (altimeter): 29.73 inches Hg (1007.0 mb)
Winds: from the NNE (30 degrees) at 6 MPH (5 knots; 2.6 m/s)
Visibility: 6 or more miles (10+ km)
Ceiling: 28000 feet AGL
Clouds: few clouds at 3000 feet AGL
scattered clouds at 14000 feet AGL
broken clouds at 28000 feet AGL
Weather: no significant weather observed at this time

METAR text: WMKK 231030Z 05004KT 010V100 9999 FEW017CB SCT140 BKN280 26/24 Q1007 NOSIG
Conditions at: WMKK (KUALA LUMPUR/SUB, MY) observed 1030 UTC 23 March 2019
Temperature: 26.0°C (79°F)
Dewpoint: 24.0°C (75°F) [RH = 89%]
Pressure (altimeter): 29.73 inches Hg (1007.0 mb)
Winds: from the NE (50 degrees) at 5 MPH (4 knots; 2.1 m/s)
Visibility: 6 or more miles (10+ km)
Ceiling: 28000 feet AGL
Clouds: few clouds at 1700 feet AGL
scattered clouds at 14000 feet AGL
broken clouds at 28000 feet AGL
Weather: no significant weather observed at this time

METAR text: WMKK 231000Z 35004KT 280V050 9999 -RA FEW017CB SCT140 BKN280 26/24 Q1007 RETSRA NOSIG
Conditions at: WMKK (KUALA LUMPUR/SUB, MY) observed 1000 UTC 23 March 2019
Temperature: 26.0°C (79°F)
Dewpoint: 24.0°C (75°F) [RH = 89%]
Pressure (altimeter): 29.73 inches Hg (1007.0 mb)
Winds: from the N (350 degrees) at 5 MPH (4 knots; 2.1 m/s)
Visibility: 6 or more miles (10+ km)
Ceiling: 28000 feet AGL
Clouds: few clouds at 1700 feet AGL
scattered clouds at 14000 feet AGL
broken clouds at 28000 feet AGL
Weather: -RA  (light rain)

METAR text: WMKK 230930Z 34009KT 290V020 7000 -TSRA FEW005 FEW017CB SCT140 BKN270 26/23 Q1007 RETSRA BECMG 9000 NSW
Conditions at: WMKK (KUALA LUMPUR/SUB, MY) observed 0930 UTC 23 March 2019
Temperature: 26.0°C (79°F)
Dewpoint: 23.0°C (73°F) [RH = 84%]
Pressure (altimeter): 29.73 inches Hg (1007.0 mb)
Winds: from the NNW (340 degrees) at 10 MPH (9 knots; 4.6 m/s)
Visibility: 4 miles ( 7 km)
Ceiling: 27000 feet AGL
Clouds: few clouds at 500 feet AGL
few clouds at 1700 feet AGL
scattered clouds at 14000 feet AGL
broken clouds at 27000 feet AGL
Weather: -TSRA  (light rain associated with thunderstorm(s))

METAR text: WMKK 230900Z 35009KT 270V050 4000 TSRA FEW005 FEW017CB SCT028 BKN270 27/23 Q1008 NOSIG
Conditions at: WMKK (KUALA LUMPUR/SUB, MY) observed 0900 UTC 23 March 2019
Temperature: 27.0°C (81°F)
Dewpoint: 23.0°C (73°F) [RH = 79%]
Pressure (altimeter): 29.76 inches Hg (1008.0 mb)
Winds: from the N (350 degrees) at 10 MPH (9 knots; 4.6 m/s)
Visibility: 2.49 miles (4.01 km)
Ceiling: 27000 feet AGL
Clouds: few clouds at 500 feet AGL
few clouds at 1700 feet AGL
scattered clouds at 2800 feet AGL
broken clouds at 27000 feet AGL
Weather: TSRA  (rain associated with thunderstorm(s))

METAR text: WMKK 230830Z 25005KT 190V300 8000 TS VCSH FEW017CB SCT140 BKN280 31/26 Q1007 TEMPO 3000 TSRA
Conditions at: WMKK (KUALA LUMPUR/SUB, MY) observed 0830 UTC 23 March 2019
Temperature: 31.0°C (88°F)
Dewpoint: 26.0°C (79°F) [RH = 75%]
Pressure (altimeter): 29.73 inches Hg (1007.0 mb)
Winds: from the WSW (250 degrees) at 6 MPH (5 knots; 2.6 m/s)
Visibility: 5 miles ( 8 km)
Ceiling: 28000 feet AGL
Clouds: few clouds at 1700 feet AGL
scattered clouds at 14000 feet AGL
broken clouds at 28000 feet AGL
Weather: TS VCSH  (thunderstorm, showers in vicinity)

METAR text: WMKK 230800Z 25007KT 200V300 9000 TS FEW017CB BKN280 32/26 Q1007 BECMG 6000 TSRA
Conditions at: WMKK (KUALA LUMPUR/SUB, MY) observed 0800 UTC 23 March 2019
Temperature: 32.0°C (90°F)
Dewpoint: 26.0°C (79°F) [RH = 71%]
Pressure (altimeter): 29.73 inches Hg (1007.0 mb)
Winds: from the WSW (250 degrees) at 8 MPH (7 knots; 3.6 m/s)
Visibility: 6 miles ( 9 km)
Ceiling: 28000 feet AGL
Clouds: few clouds at 1700 feet AGL
broken clouds at 28000 feet AGL
Weather: TS  (thunderstorm)

METAR text: WMKK 230730Z 26010KT 210V300 9000 TS FEW017CB SCT018 BKN280 32/24 Q1007 TEMPO FM0800 4000 TSRA
Conditions at: WMKK (KUALA LUMPUR/SUB, MY) observed 0730 UTC 23 March 2019
Temperature: 32.0°C (90°F)
Dewpoint: 24.0°C (75°F) [RH = 63%]
Pressure (altimeter): 29.73 inches Hg (1007.0 mb)
Winds: from the W (260 degrees) at 12 MPH (10 knots; 5.1 m/s)
Visibility: 6 miles ( 9 km)
Ceiling: 28000 feet AGL
Clouds: few clouds at 1700 feet AGL
scattered clouds at 1800 feet AGL
broken clouds at 28000 feet AGL
Weather: TS  (thunderstorm)

METAR text: WMKK 230700Z 24008KT 170V300 9000 FEW017CB SCT018 BKN280 33/24 Q1007 NOSIG
Conditions at: WMKK (KUALA LUMPUR/SUB, MY) observed 0700 UTC 23 March 2019
Temperature: 33.0°C (91°F)
Dewpoint: 24.0°C (75°F) [RH = 59%]
Pressure (altimeter): 29.73 inches Hg (1007.0 mb)
Winds: from the WSW (240 degrees) at 9 MPH (8 knots; 4.1 m/s)
Visibility: 6 miles ( 9 km)
Ceiling: 28000 feet AGL
Clouds: few clouds at 1700 feet AGL
scattered clouds at 1800 feet AGL
broken clouds at 28000 feet AGL
Weather: no significant weather observed at this time

METAR text: WMKK 230630Z 23009KT 160V290 9000 FEW017CB SCT018 BKN280 33/27 Q1008 NOSIG
Conditions at: WMKK (KUALA LUMPUR/SUB, MY) observed 0630 UTC 23 March 2019
Temperature: 33.0°C (91°F)
Dewpoint: 27.0°C (81°F) [RH = 71%]
Pressure (altimeter): 29.76 inches Hg (1008.0 mb)
Winds: from the SW (230 degrees) at 10 MPH (9 knots; 4.6 m/s)
Visibility: 6 miles ( 9 km)
Ceiling: 28000 feet AGL
Clouds: few clouds at 1700 feet AGL
scattered clouds at 1800 feet AGL
broken clouds at 28000 feet AGL
Weather: no significant weather observed at this time

METAR text: WMKK 230600Z 22007KT 170V290 9000 FEW017CB SCT018 BKN280 33/27 Q1009 NOSIG
Conditions at: WMKK (KUALA LUMPUR/SUB, MY) observed 0600 UTC 23 March 2019
Temperature: 33.0°C (91°F)
Dewpoint: 27.0°C (81°F) [RH = 71%]
Pressure (altimeter): 29.79 inches Hg (1009.0 mb)
Winds: from the SW (220 degrees) at 8 MPH (7 knots; 3.6 m/s)
Visibility: 6 miles ( 9 km)
Ceiling: 28000 feet AGL
Clouds: few clouds at 1700 feet AGL
scattered clouds at 1800 feet AGL
broken clouds at 28000 feet AGL
Weather: no significant weather observed at this time

METAR text: WMKK 230530Z 25007KT 210V310 9000 SCT018 SCT140 BKN280 33/27 Q1009 NOSIG
Conditions at: WMKK (KUALA LUMPUR/SUB, MY) observed 0530 UTC 23 March 2019
Temperature: 33.0°C (91°F)
Dewpoint: 27.0°C (81°F) [RH = 71%]
Pressure (altimeter): 29.79 inches Hg (1009.0 mb)
Winds: from the WSW (250 degrees) at 8 MPH (7 knots; 3.6 m/s)
Visibility: 6 miles ( 9 km)
Ceiling: 28000 feet AGL
Clouds: scattered clouds at 1800 feet AGL
scattered clouds at 14000 feet AGL
broken clouds at 28000 feet AGL
Weather: no significant weather observed at this time

METAR text: WMKK 230500Z VRB05KT 9000 SCT018 SCT140 BKN280 33/27 Q1010 NOSIG
Conditions at: WMKK (KUALA LUMPUR/SUB, MY) observed 0500 UTC 23 March 2019
Temperature: 33.0°C (91°F)
Dewpoint: 27.0°C (81°F) [RH = 71%]
Pressure (altimeter): 29.82 inches Hg (1010.0 mb)
Winds: variable direction winds at 6 MPH (5 knots; 2.6 m/s)
Visibility: 6 miles ( 9 km)
Ceiling: 28000 feet AGL
Clouds: scattered clouds at 1800 feet AGL
scattered clouds at 14000 feet AGL
broken clouds at 28000 feet AGL
Weather: no significant weather observed at this time

METAR text: WMKK 230430Z VRB05KT 9999 SCT018 SCT140 BKN280 34/25 Q1010 NOSIG
Conditions at: WMKK (KUALA LUMPUR/SUB, MY) observed 0430 UTC 23 March 2019
Temperature: 34.0°C (93°F)
Dewpoint: 25.0°C (77°F) [RH = 60%]
Pressure (altimeter): 29.82 inches Hg (1010.0 mb)
Winds: variable direction winds at 6 MPH (5 knots; 2.6 m/s)
Visibility: 6 or more miles (10+ km)
Ceiling: 28000 feet AGL
Clouds: scattered clouds at 1800 feet AGL
scattered clouds at 14000 feet AGL
broken clouds at 28000 feet AGL
Weather: no significant weather observed at this time

METAR text: WMKK 230400Z 29004KT 210V020 9999 SCT018 SCT140 BKN280 34/24 Q1011 NOSIG
Conditions at: WMKK (KUALA LUMPUR/SUB, MY) observed 0400 UTC 23 March 2019
Temperature: 34.0°C (93°F)
Dewpoint: 24.0°C (75°F) [RH = 56%]
Pressure (altimeter): 29.85 inches Hg (1011.0 mb)
Winds: from the WNW (290 degrees) at 5 MPH (4 knots; 2.1 m/s)
Visibility: 6 or more miles (10+ km)
Ceiling: 28000 feet AGL
Clouds: scattered clouds at 1800 feet AGL
scattered clouds at 14000 feet AGL
broken clouds at 28000 feet AGL
Weather: no significant weather observed at this time

METAR text: WMKK 230330Z 36004KT 280V070 9999 SCT018 SCT140 BKN280 33/25 Q1011 NOSIG
Conditions at: WMKK (KUALA LUMPUR/SUB, MY) observed 0330 UTC 23 March 2019
Temperature: 33.0°C (91°F)
Dewpoint: 25.0°C (77°F) [RH = 63%]
Pressure (altimeter): 29.85 inches Hg (1011.0 mb)
Winds: from the N (360 degrees) at 5 MPH (4 knots; 2.1 m/s)
Visibility: 6 or more miles (10+ km)
Ceiling: 28000 feet AGL
Clouds: scattered clouds at 1800 feet AGL
scattered clouds at 14000 feet AGL
broken clouds at 28000 feet AGL
Weather: no significant weather observed at this time

METAR text: WMKK 230300Z VRB03KT 9999 FEW017CB SCT140 BKN280 32/26 Q1011 NOSIG
Conditions at: WMKK (KUALA LUMPUR/SUB, MY) observed 0300 UTC 23 March 2019
Temperature: 32.0°C (90°F)
Dewpoint: 26.0°C (79°F) [RH = 71%]
Pressure (altimeter): 29.85 inches Hg (1011.0 mb)
Winds: variable direction winds at 3 MPH (3 knots; 1.5 m/s)
Visibility: 6 or more miles (10+ km)
Ceiling: 28000 feet AGL
Clouds: few clouds at 1700 feet AGL
scattered clouds at 14000 feet AGL
broken clouds at 28000 feet AGL
Weather: no significant weather observed at this time

METAR text: WMKK 230230Z VRB03KT 9999 FEW017CB SCT140 BKN280 32/26 Q1011 NOSIG
Conditions at: WMKK (KUALA LUMPUR/SUB, MY) observed 0230 UTC 23 March 2019
Temperature: 32.0°C (90°F)
Dewpoint: 26.0°C (79°F) [RH = 71%]
Pressure (altimeter): 29.85 inches Hg (1011.0 mb)
Winds: variable direction winds at 3 MPH (3 knots; 1.5 m/s)
Visibility: 6 or more miles (10+ km)
Ceiling: 28000 feet AGL
Clouds: few clouds at 1700 feet AGL
scattered clouds at 14000 feet AGL
broken clouds at 28000 feet AGL
Weather: no significant weather observed at this time

METAR text: WMKK 230200Z VRB03KT 9999 FEW017CB SCT140 BKN280 31/26 Q1011 NOSIG
Conditions at: WMKK (KUALA LUMPUR/SUB, MY) observed 0200 UTC 23 March 2019
Temperature: 31.0°C (88°F)
Dewpoint: 26.0°C (79°F) [RH = 75%]
Pressure (altimeter): 29.85 inches Hg (1011.0 mb)
Winds: variable direction winds at 3 MPH (3 knots; 1.5 m/s)
Visibility: 6 or more miles (10+ km)
Ceiling: 28000 feet AGL
Clouds: few clouds at 1700 feet AGL
scattered clouds at 14000 feet AGL
broken clouds at 28000 feet AGL
Weather: no significant weather observed at this time

METAR text: WMKK 230130Z VRB03KT 9000 FEW017CB SCT140 BKN280 30/26 Q1011 NOSIG
Conditions at: WMKK (KUALA LUMPUR/SUB, MY) observed 0130 UTC 23 March 2019
Temperature: 30.0°C (86°F)
Dewpoint: 26.0°C (79°F) [RH = 79%]
Pressure (altimeter): 29.85 inches Hg (1011.0 mb)
Winds: variable direction winds at 3 MPH (3 knots; 1.5 m/s)
Visibility: 6 miles ( 9 km)
Ceiling: 28000 feet AGL
Clouds: few clouds at 1700 feet AGL
scattered clouds at 14000 feet AGL
broken clouds at 28000 feet AGL
Weather: no significant weather observed at this time

METAR text: WMKK 230100Z 05004KT 010V100 9000 FEW017CB SCT140 BKN280 29/26 Q1011 NOSIG
Conditions at: WMKK (KUALA LUMPUR/SUB, MY) observed 0100 UTC 23 March 2019
Temperature: 29.0°C (84°F)
Dewpoint: 26.0°C (79°F) [RH = 84%]
Pressure (altimeter): 29.85 inches Hg (1011.0 mb)
Winds: from the NE (50 degrees) at 5 MPH (4 knots; 2.1 m/s)
Visibility: 6 miles ( 9 km)
Ceiling: 28000 feet AGL
Clouds: few clouds at 1700 feet AGL
scattered clouds at 14000 feet AGL
broken clouds at 28000 feet AGL
Weather: no significant weather observed at this time

METAR text: WMKK 230030Z 06003KT 020V140 9000 FEW017CB SCT140 BKN280 28/25 Q1011 NOSIG
Conditions at: WMKK (KUALA LUMPUR/SUB, MY) observed 0030 UTC 23 March 2019
Temperature: 28.0°C (82°F)
Dewpoint: 25.0°C (77°F) [RH = 84%]
Pressure (altimeter): 29.85 inches Hg (1011.0 mb)
Winds: from the ENE (60 degrees) at 3 MPH (3 knots; 1.5 m/s)
Visibility: 6 miles ( 9 km)
Ceiling: 28000 feet AGL
Clouds: few clouds at 1700 feet AGL
scattered clouds at 14000 feet AGL
broken clouds at 28000 feet AGL
Weather: no significant weather observed at this time

METAR text: WMKK 230000Z VRB02KT 7000 FEW017CB SCT140 BKN280 27/25 Q1010 NOSIG
Conditions at: WMKK (KUALA LUMPUR/SUB, MY) observed 0000 UTC 23 March 2019
Temperature: 27.0°C (81°F)
Dewpoint: 25.0°C (77°F) [RH = 89%]
Pressure (altimeter): 29.82 inches Hg (1010.0 mb)
Winds: variable direction winds at 2 MPH (2 knots; 1.0 m/s)
Visibility: 4 miles ( 7 km)
Ceiling: 28000 feet AGL
Clouds: few clouds at 1700 feet AGL
scattered clouds at 14000 feet AGL
broken clouds at 28000 feet AGL
Weather: no significant weather observed at this time

METAR text: WMKK 222330Z 03003KT 360V060 6000 FEW017CB SCT140 BKN280 27/25 Q1010 NOSIG
Conditions at: WMKK (KUALA LUMPUR/SUB, MY) observed 2330 UTC 22 March 2019
Temperature: 27.0°C (81°F)
Dewpoint: 25.0°C (77°F) [RH = 89%]
Pressure (altimeter): 29.82 inches Hg (1010.0 mb)
Winds: from the NNE (30 degrees) at 3 MPH (3 knots; 1.5 m/s)
Visibility: 4 miles ( 6 km)
Ceiling: 28000 feet AGL
Clouds: few clouds at 1700 feet AGL
scattered clouds at 14000 feet AGL
broken clouds at 28000 feet AGL
Weather: no significant weather observed at this time

METAR text: WMKK 222300Z 03003KT 350V070 6000 FEW017CB SCT140 BKN280 27/25 Q1009 NOSIG
Conditions at: WMKK (KUALA LUMPUR/SUB, MY) observed 2300 UTC 22 March 2019
Temperature: 27.0°C (81°F)
Dewpoint: 25.0°C (77°F) [RH = 89%]
Pressure (altimeter): 29.79 inches Hg (1009.0 mb)
Winds: from the NNE (30 degrees) at 3 MPH (3 knots; 1.5 m/s)
Visibility: 4 miles ( 6 km)
Ceiling: 28000 feet AGL
Clouds: few clouds at 1700 feet AGL
scattered clouds at 14000 feet AGL
broken clouds at 28000 feet AGL
Weather: no significant weather observed at this time

METAR text: WMKK 222230Z VRB03KT 6000 FEW030 SCT140 BKN280 26/25 Q1009 NOSIG
Conditions at: WMKK (KUALA LUMPUR/SUB, MY) observed 2230 UTC 22 March 2019
Temperature: 26.0°C (79°F)
Dewpoint: 25.0°C (77°F) [RH = 94%]
Pressure (altimeter): 29.79 inches Hg (1009.0 mb)
Winds: variable direction winds at 3 MPH (3 knots; 1.5 m/s)
Visibility: 4 miles ( 6 km)
Ceiling: 28000 feet AGL
Clouds: few clouds at 3000 feet AGL
scattered clouds at 14000 feet AGL
broken clouds at 28000 feet AGL
Weather: no significant weather observed at this time

METAR text: WMKK 222200Z VRB02KT 5000 HZ FEW030 SCT140 BKN280 27/25 Q1009 NOSIG
Conditions at: WMKK (KUALA LUMPUR/SUB, MY) observed 2200 UTC 22 March 2019
Temperature: 27.0°C (81°F)
Dewpoint: 25.0°C (77°F) [RH = 89%]
Pressure (altimeter): 29.79 inches Hg (1009.0 mb)
Winds: variable direction winds at 2 MPH (2 knots; 1.0 m/s)
Visibility: 3 miles ( 5 km)
Ceiling: 28000 feet AGL
Clouds: few clouds at 3000 feet AGL
scattered clouds at 14000 feet AGL
broken clouds at 28000 feet AGL
Weather: HZ  (haze)

METAR text: WMKK 222130Z VRB03KT 5000 HZ FEW030 SCT140 BKN280 27/25 Q1009 NOSIG
Conditions at: WMKK (KUALA LUMPUR/SUB, MY) observed 2130 UTC 22 March 2019
Temperature: 27.0°C (81°F)
Dewpoint: 25.0°C (77°F) [RH = 89%]
Pressure (altimeter): 29.79 inches Hg (1009.0 mb)
Winds: variable direction winds at 3 MPH (3 knots; 1.5 m/s)
Visibility: 3 miles ( 5 km)
Ceiling: 28000 feet AGL
Clouds: few clouds at 3000 feet AGL
scattered clouds at 14000 feet AGL
broken clouds at 28000 feet AGL
Weather: HZ  (haze)

METAR text: WMKK 222100Z 00000KT 6000 FEW030 SCT140 BKN280 27/25 Q1009 NOSIG
Conditions at: WMKK (KUALA LUMPUR/SUB, MY) observed 2100 UTC 22 March 2019
Temperature: 27.0°C (81°F)
Dewpoint: 25.0°C (77°F) [RH = 89%]
Pressure (altimeter): 29.79 inches Hg (1009.0 mb)
Winds: calm
Visibility: 4 miles ( 6 km)
Ceiling: 28000 feet AGL
Clouds: few clouds at 3000 feet AGL
scattered clouds at 14000 feet AGL
broken clouds at 28000 feet AGL
Weather: no significant weather observed at this time

METAR text: WMKK 222030Z VRB03KT 7000 FEW030 SCT140 BKN280 27/25 Q1009 NOSIG
Conditions at: WMKK (KUALA LUMPUR/SUB, MY) observed 2030 UTC 22 March 2019
Temperature: 27.0°C (81°F)
Dewpoint: 25.0°C (77°F) [RH = 89%]
Pressure (altimeter): 29.79 inches Hg (1009.0 mb)
Winds: variable direction winds at 3 MPH (3 knots; 1.5 m/s)
Visibility: 4 miles ( 7 km)
Ceiling: 28000 feet AGL
Clouds: few clouds at 3000 feet AGL
scattered clouds at 14000 feet AGL
broken clouds at 28000 feet AGL
Weather: no significant weather observed at this time

METAR text: WMKK 222000Z 03003KT 350V070 8000 FEW030 SCT140 BKN280 27/25 Q1009 NOSIG
Conditions at: WMKK (KUALA LUMPUR/SUB, MY) observed 2000 UTC 22 March 2019
Temperature: 27.0°C (81°F)
Dewpoint: 25.0°C (77°F) [RH = 89%]
Pressure (altimeter): 29.79 inches Hg (1009.0 mb)
Winds: from the NNE (30 degrees) at 3 MPH (3 knots; 1.5 m/s)
Visibility: 5 miles ( 8 km)
Ceiling: 28000 feet AGL
Clouds: few clouds at 3000 feet AGL
scattered clouds at 14000 feet AGL
broken clouds at 28000 feet AGL
Weather: no significant weather observed at this time

METAR text: WMKK 221930Z 02004KT 350V060 6000 FEW030 SCT140 BKN280 28/25 Q1009 NOSIG
Conditions at: WMKK (KUALA LUMPUR/SUB, MY) observed 1930 UTC 22 March 2019
Temperature: 28.0°C (82°F)
Dewpoint: 25.0°C (77°F) [RH = 84%]
Pressure (altimeter): 29.79 inches Hg (1009.0 mb)
Winds: from the NNE (20 degrees) at 5 MPH (4 knots; 2.1 m/s)
Visibility: 4 miles ( 6 km)
Ceiling: 28000 feet AGL
Clouds: few clouds at 3000 feet AGL
scattered clouds at 14000 feet AGL
broken clouds at 28000 feet AGL
Weather: no significant weather observed at this time

METAR text: WMKK 221900Z VRB03KT 7000 FEW030 SCT140 BKN280 28/26 Q1010 NOSIG
Conditions at: WMKK (KUALA LUMPUR/SUB, MY) observed 1900 UTC 22 March 2019
Temperature: 28.0°C (82°F)
Dewpoint: 26.0°C (79°F) [RH = 89%]
Pressure (altimeter): 29.82 inches Hg (1010.0 mb)
Winds: variable direction winds at 3 MPH (3 knots; 1.5 m/s)
Visibility: 4 miles ( 7 km)
Ceiling: 28000 feet AGL
Clouds: few clouds at 3000 feet AGL
scattered clouds at 14000 feet AGL
broken clouds at 28000 feet AGL
Weather: no significant weather observed at this time

METAR text: WMKK 221830Z 03003KT 360V060 8000 FEW030 BKN280 28/25 Q1010 NOSIG
Conditions at: WMKK (KUALA LUMPUR/SUB, MY) observed 1830 UTC 22 March 2019
Temperature: 28.0°C (82°F)
Dewpoint: 25.0°C (77°F) [RH = 84%]
Pressure (altimeter): 29.82 inches Hg (1010.0 mb)
Winds: from the NNE (30 degrees) at 3 MPH (3 knots; 1.5 m/s)
Visibility: 5 miles ( 8 km)
Ceiling: 28000 feet AGL
Clouds: few clouds at 3000 feet AGL
broken clouds at 28000 feet AGL
Weather: no significant weather observed at this time

METAR text: WMKK 221800Z VRB03KT 8000 FEW030 BKN280 28/26 Q1010 NOSIG
Conditions at: WMKK (KUALA LUMPUR/SUB, MY) observed 1800 UTC 22 March 2019
Temperature: 28.0°C (82°F)
Dewpoint: 26.0°C (79°F) [RH = 89%]
Pressure (altimeter): 29.82 inches Hg (1010.0 mb)
Winds: variable direction winds at 3 MPH (3 knots; 1.5 m/s)
Visibility: 5 miles ( 8 km)
Ceiling: 28000 feet AGL
Clouds: few clouds at 3000 feet AGL
broken clouds at 28000 feet AGL
Weather: no significant weather observed at this time

METAR text: WMKK 221730Z 34003KT 280V040 8000 FEW030 BKN280 28/26 Q1010 NOSIG
Conditions at: WMKK (KUALA LUMPUR/SUB, MY) observed 1730 UTC 22 March 2019
Temperature: 28.0°C (82°F)
Dewpoint: 26.0°C (79°F) [RH = 89%]
Pressure (altimeter): 29.82 inches Hg (1010.0 mb)
Winds: from the NNW (340 degrees) at 3 MPH (3 knots; 1.5 m/s)
Visibility: 5 miles ( 8 km)
Ceiling: 28000 feet AGL
Clouds: few clouds at 3000 feet AGL
broken clouds at 28000 feet AGL
Weather: no significant weather observed at this time

METAR text: WMKK 221700Z VRB02KT 8000 FEW030 BKN280 28/26 Q1011 NOSIG
Conditions at: WMKK (KUALA LUMPUR/SUB, MY) observed 1700 UTC 22 March 2019
Temperature: 28.0°C (82°F)
Dewpoint: 26.0°C (79°F) [RH = 89%]
Pressure (altimeter): 29.85 inches Hg (1011.0 mb)
Winds: variable direction winds at 2 MPH (2 knots; 1.0 m/s)
Visibility: 5 miles ( 8 km)
Ceiling: 28000 feet AGL
Clouds: few clouds at 3000 feet AGL
broken clouds at 28000 feet AGL
Weather: no significant weather observed at this time

METAR text: WMKK 221630Z 32003KT 290V350 8000 FEW030 BKN280 28/26 Q1011 NOSIG
Conditions at: WMKK (KUALA LUMPUR/SUB, MY) observed 1630 UTC 22 March 2019
Temperature: 28.0°C (82°F)
Dewpoint: 26.0°C (79°F) [RH = 89%]
Pressure (altimeter): 29.85 inches Hg (1011.0 mb)
Winds: from the NW (320 degrees) at 3 MPH (3 knots; 1.5 m/s)
Visibility: 5 miles ( 8 km)
Ceiling: 28000 feet AGL
Clouds: few clouds at 3000 feet AGL
broken clouds at 28000 feet AGL
Weather: no significant weather observed at this time

METAR text: WMKK 221600Z VRB03KT 8000 FEW030 BKN280 28/26 Q1011 NOSIG
Conditions at: WMKK (KUALA LUMPUR/SUB, MY) observed 1600 UTC 22 March 2019
Temperature: 28.0°C (82°F)
Dewpoint: 26.0°C (79°F) [RH = 89%]
Pressure (altimeter): 29.85 inches Hg (1011.0 mb)
Winds: variable direction winds at 3 MPH (3 knots; 1.5 m/s)
Visibility: 5 miles ( 8 km)
Ceiling: 28000 feet AGL
Clouds: few clouds at 3000 feet AGL
broken clouds at 28000 feet AGL
Weather: no significant weather observed at this time

METAR text: WMKK 221530Z VRB02KT 9000 FEW030 BKN280 28/26 Q1011 NOSIG
Conditions at: WMKK (KUALA LUMPUR/SUB, MY) observed 1530 UTC 22 March 2019
Temperature: 28.0°C (82°F)
Dewpoint: 26.0°C (79°F) [RH = 89%]
Pressure (altimeter): 29.85 inches Hg (1011.0 mb)
Winds: variable direction winds at 2 MPH (2 knots; 1.0 m/s)
Visibility: 6 miles ( 9 km)
Ceiling: 28000 feet AGL
Clouds: few clouds at 3000 feet AGL
broken clouds at 28000 feet AGL
Weather: no significant weather observed at this time

METAR text: WMKK 221500Z VRB02KT 9000 FEW030 BKN280 29/26 Q1011 NOSIG
Conditions at: WMKK (KUALA LUMPUR/SUB, MY) observed 1500 UTC 22 March 2019
Temperature: 29.0°C (84°F)
Dewpoint: 26.0°C (79°F) [RH = 84%]
Pressure (altimeter): 29.85 inches Hg (1011.0 mb)
Winds: variable direction winds at 2 MPH (2 knots; 1.0 m/s)
Visibility: 6 miles ( 9 km)
Ceiling: 28000 feet AGL
Clouds: few clouds at 3000 feet AGL
broken clouds at 28000 feet AGL
Weather: no significant weather observed at this time

METAR text: WMKK 221430Z VRB01KT 9000 FEW030 BKN280 29/25 Q1010 NOSIG
Conditions at: WMKK (KUALA LUMPUR/SUB, MY) observed 1430 UTC 22 March 2019
Temperature: 29.0°C (84°F)
Dewpoint: 25.0°C (77°F) [RH = 79%]
Pressure (altimeter): 29.82 inches Hg (1010.0 mb)
Winds: variable direction winds at 1 MPH (1 knots; 0.5 m/s)
Visibility: 6 miles ( 9 km)
Ceiling: 28000 feet AGL
Clouds: few clouds at 3000 feet AGL
broken clouds at 28000 feet AGL
Weather: no significant weather observed at this time

METAR text: WMKK 221400Z VRB02KT 9000 FEW030 BKN280 29/25 Q1010 NOSIG
Conditions at: WMKK (KUALA LUMPUR/SUB, MY) observed 1400 UTC 22 March 2019
Temperature: 29.0°C (84°F)
Dewpoint: 25.0°C (77°F) [RH = 79%]
Pressure (altimeter): 29.82 inches Hg (1010.0 mb)
Winds: variable direction winds at 2 MPH (2 knots; 1.0 m/s)
Visibility: 6 miles ( 9 km)
Ceiling: 28000 feet AGL
Clouds: few clouds at 3000 feet AGL
broken clouds at 28000 feet AGL
Weather: no significant weather observed at this time

METAR text: WMKK 221330Z VRB03KT 9000 FEW030 BKN280 29/25 Q1009 NOSIG
Conditions at: WMKK (KUALA LUMPUR/SUB, MY) observed 1330 UTC 22 March 2019
Temperature: 29.0°C (84°F)
Dewpoint: 25.0°C (77°F) [RH = 79%]
Pressure (altimeter): 29.79 inches Hg (1009.0 mb)
Winds: variable direction winds at 3 MPH (3 knots; 1.5 m/s)
Visibility: 6 miles ( 9 km)
Ceiling: 28000 feet AGL
Clouds: few clouds at 3000 feet AGL
broken clouds at 28000 feet AGL
Weather: no significant weather observed at this time

METAR text: WMKK 221300Z 29004KT 250V320 9999 FEW030 BKN280 29/25 Q1009 NOSIG
Conditions at: WMKK (KUALA LUMPUR/SUB, MY) observed 1300 UTC 22 March 2019
Temperature: 29.0°C (84°F)
Dewpoint: 25.0°C (77°F) [RH = 79%]
Pressure (altimeter): 29.79 inches Hg (1009.0 mb)
Winds: from the WNW (290 degrees) at 5 MPH (4 knots; 2.1 m/s)
Visibility: 6 or more miles (10+ km)
Ceiling: 28000 feet AGL
Clouds: few clouds at 3000 feet AGL
broken clouds at 28000 feet AGL
Weather: no significant weather observed at this time

METAR text: WMKK 221230Z 28004KT 230V330 9999 FEW030 BKN280 29/25 Q1008 NOSIG
Conditions at: WMKK (KUALA LUMPUR/SUB, MY) observed 1230 UTC 22 March 2019
Temperature: 29.0°C (84°F)
Dewpoint: 25.0°C (77°F) [RH = 79%]
Pressure (altimeter): 29.76 inches Hg (1008.0 mb)
Winds: from the W (280 degrees) at 5 MPH (4 knots; 2.1 m/s)
Visibility: 6 or more miles (10+ km)
Ceiling: 28000 feet AGL
Clouds: few clouds at 3000 feet AGL
broken clouds at 28000 feet AGL
Weather: no significant weather observed at this time

METAR text: WMKK 221200Z 26005KT 230V300 9999 FEW030 SCT140 BKN280 29/25 Q1008 NOSIG
Conditions at: WMKK (KUALA LUMPUR/SUB, MY) observed 1200 UTC 22 March 2019
Temperature: 29.0°C (84°F)
Dewpoint: 25.0°C (77°F) [RH = 79%]
Pressure (altimeter): 29.76 inches Hg (1008.0 mb)
Winds: from the W (260 degrees) at 6 MPH (5 knots; 2.6 m/s)
Visibility: 6 or more miles (10+ km)
Ceiling: 28000 feet AGL
Clouds: few clouds at 3000 feet AGL
scattered clouds at 14000 feet AGL
broken clouds at 28000 feet AGL
Weather: no significant weather observed at this time

METAR text: WMKK 221130Z 25004KT 220V300 9999 FEW030 SCT140 BKN280 30/25 Q1008 NOSIG
Conditions at: WMKK (KUALA LUMPUR/SUB, MY) observed 1130 UTC 22 March 2019
Temperature: 30.0°C (86°F)
Dewpoint: 25.0°C (77°F) [RH = 75%]
Pressure (altimeter): 29.76 inches Hg (1008.0 mb)
Winds: from the WSW (250 degrees) at 5 MPH (4 knots; 2.1 m/s)
Visibility: 6 or more miles (10+ km)
Ceiling: 28000 feet AGL
Clouds: few clouds at 3000 feet AGL
scattered clouds at 14000 feet AGL
broken clouds at 28000 feet AGL
Weather: no significant weather observed at this time

METAR text: WMKK 221100Z 26006KT 210V310 9999 FEW017CB BKN280 30/25 Q1007 NOSIG
Conditions at: WMKK (KUALA LUMPUR/SUB, MY) observed 1100 UTC 22 March 2019
Temperature: 30.0°C (86°F)
Dewpoint: 25.0°C (77°F) [RH = 75%]
Pressure (altimeter): 29.73 inches Hg (1007.0 mb)
Winds: from the W (260 degrees) at 7 MPH (6 knots; 3.1 m/s)
Visibility: 6 or more miles (10+ km)
Ceiling: 28000 feet AGL
Clouds: few clouds at 1700 feet AGL
broken clouds at 28000 feet AGL
Weather: no significant weather observed at this time

Forecast for: WMKK (KUALA LUMPUR/SUB, MY)
Text: TAF WMKK 231700Z 2318/2500 VRB03KT 8000 FEW030
Forecast period: 1800 UTC 23 March 2019 to 0000 UTC 24 March 2019
Forecast type: FROM: standard forecast or significant change
Winds: variable direction winds at 3 MPH (3 knots; 1.5 m/s)
Visibility: 5 miles (8 km)
Ceiling: at least 12,000 feet AGL
Clouds: few clouds at 3000 feet AGL
Weather: no significant weather forecast for this period
Text: BECMG 2400/2401 03005KT 9999 FEW018
Forecast period: 0000 to 1300 UTC 24 March 2019
Forecast type: BECOMING: Conditions expected to become as follows by 0100 UTC 24 March 2019
Winds: from the NNE (30 degrees) at 6 MPH (5 knots; 2.6 m/s)
Visibility: 6 or more miles 10+ km)
Ceiling: at least 12,000 feet AGL
Clouds: few clouds at 1800 feet AGL
Weather: no significant weather forecast for this period
Text: TEMPO 2408/2412 27010KT 4000 TSRA FEW017CB SCT018
Forecast period: 0800 to 1200 UTC 24 March 2019
Forecast type: TEMPORARY: The following changes expected for less than half the time period
Winds: from the W (270 degrees) at 12 MPH (10 knots; 5.1 m/s)
Visibility: 2.49 miles (4.01 km)
Ceiling: at least 12,000 feet AGL
Clouds: few clouds at 1700 feet AGL
scattered clouds at 1800 feet AGL
Weather: TSRA  (rain associated with thunderstorm(s))
Text: BECMG 2413/2414 VRB03KT 9000 FEW030
Forecast period: 1300 UTC 24 March 2019 to 0000 UTC 25 March 2019
Forecast type: BECOMING: Conditions expected to become as follows by 1400 UTC 24 March 2019
Winds: variable direction winds at 3 MPH (3 knots; 1.5 m/s)
Visibility: 6 miles (9 km)
Ceiling: at least 12,000 feet AGL
Clouds: few clouds at 3000 feet AGL
Weather: no significant weather forecast for this period